sensor_id;sensor_type;location;lat;lon;timestamp;pressure;altitude;pressure_sealevel;temperature;humidity
57000;BME280;42891;50.006;21.964;2022-07-01T00:02:58;98729.13;;;25.49;62.02
57000;BME280;42891;50.006;21.964;2022-07-01T00:06:58;98725.50;;;25.44;62.19
57000;BME280;42891;50.006;21.964;2022-07-01T00:10:59;98714.94;;;25.42;61.78
57000;BME280;42891;50.006;21.964;2022-07-01T00:14:59;98702.50;;;25.29;62.27
57000;BME280;42891;50.006;21.964;2022-07-01T00:19:00;98721.97;;;25.31;62.90
57000;BME280;42891;50.006;21.964;2022-07-01T00:23:01;98733.41;;;25.33;62.16
57000;BME280;42891;50.006;21.964;2022-07-01T00:27:01;98730.13;;;25.19;62.66
57000;BME280;42891;50.006;21.964;2022-07-01T00:31:02;98735.03;;;25.23;62.73
57000;BME280;42891;50.006;21.964;2022-07-01T00:35:02;98733.75;;;25.25;62.66
57000;BME280;42891;50.006;21.964;2022-07-01T00:39:03;98733.28;;;25.16;62.38
57000;BME280;42891;50.006;21.964;2022-07-01T00:43:03;98721.31;;;25.12;62.63
57000;BME280;42891;50.006;21.964;2022-07-01T00:47:11;98724.00;;;25.12;62.53
57000;BME280;42891;50.006;21.964;2022-07-01T00:51:13;98721.09;;;25.02;62.78
57000;BME280;42891;50.006;21.964;2022-07-01T00:55:14;98732.47;;;25.04;62.63
57000;BME280;42891;50.006;21.964;2022-07-01T00:59:15;98728.72;;;25.05;62.65
57000;BME280;42891;50.006;21.964;2022-07-01T01:03:15;98738.94;;;25.03;63.27
57000;BME280;42891;50.006;21.964;2022-07-01T01:07:16;98729.09;;;24.85;63.50
57000;BME280;42891;50.006;21.964;2022-07-01T01:11:16;98720.50;;;24.76;63.31
57000;BME280;42891;50.006;21.964;2022-07-01T01:15:18;98726.28;;;24.80;63.73
57000;BME280;42891;50.006;21.964;2022-07-01T01:19:18;98727.81;;;24.76;63.75
57000;BME280;42891;50.006;21.964;2022-07-01T01:23:19;98721.34;;;24.77;64.08
57000;BME280;42891;50.006;21.964;2022-07-01T01:27:19;98723.69;;;24.73;63.99
57000;BME280;42891;50.006;21.964;2022-07-01T01:31:30;98718.50;;;24.60;64.65
57000;BME280;42891;50.006;21.964;2022-07-01T01:35:32;98721.34;;;24.65;64.50
57000;BME280;42891;50.006;21.964;2022-07-01T01:39:33;98722.50;;;24.57;64.55
57000;BME280;42891;50.006;21.964;2022-07-01T01:43:33;98707.94;;;24.46;64.54
57000;BME280;42891;50.006;21.964;2022-07-01T01:47:34;98724.38;;;24.45;64.58
57000;BME280;42891;50.006;21.964;2022-07-01T01:51:35;98724.34;;;24.21;65.51
57000;BME280;42891;50.006;21.964;2022-07-01T01:55:35;98734.53;;;24.19;66.35
57000;BME280;42891;50.006;21.964;2022-07-01T01:59:35;98731.06;;;24.00;66.20
57000;BME280;42891;50.006;21.964;2022-07-01T02:03:37;98750.41;;;23.97;66.90
57000;BME280;42891;50.006;21.964;2022-07-01T02:07:38;98749.47;;;23.73;67.74
57000;BME280;42891;50.006;21.964;2022-07-01T02:11:39;98745.22;;;23.65;67.65
57000;BME280;42891;50.006;21.964;2022-07-01T02:15:39;98735.16;;;23.72;67.84
57000;BME280;42891;50.006;21.964;2022-07-01T02:19:39;98740.81;;;24.01;67.42
57000;BME280;42891;50.006;21.964;2022-07-01T02:23:40;98732.25;;;24.04;66.20
57000;BME280;42891;50.006;21.964;2022-07-01T02:27:40;98736.97;;;24.21;66.61
57000;BME280;42891;50.006;21.964;2022-07-01T02:31:40;98741.47;;;24.27;66.88
57000;BME280;42891;50.006;21.964;2022-07-01T02:35:41;98742.75;;;24.24;66.29
57000;BME280;42891;50.006;21.964;2022-07-01T02:39:41;98738.16;;;24.25;66.30
57000;BME280;42891;50.006;21.964;2022-07-01T02:43:42;98743.00;;;24.23;65.97
57000;BME280;42891;50.006;21.964;2022-07-01T02:47:42;98742.59;;;24.07;66.40
57000;BME280;42891;50.006;21.964;2022-07-01T02:51:42;98751.53;;;24.20;66.63
57000;BME280;42891;50.006;21.964;2022-07-01T02:55:43;98747.66;;;24.15;66.66
57000;BME280;42891;50.006;21.964;2022-07-01T02:59:43;98749.28;;;24.16;66.84
57000;BME280;42891;50.006;21.964;2022-07-01T03:03:43;98743.31;;;24.14;67.22
57000;BME280;42891;50.006;21.964;2022-07-01T03:07:43;98750.94;;;24.17;67.26
57000;BME280;42891;50.006;21.964;2022-07-01T03:11:44;98764.56;;;24.23;67.46
57000;BME280;42891;50.006;21.964;2022-07-01T03:15:44;98766.75;;;24.14;67.76
57000;BME280;42891;50.006;21.964;2022-07-01T03:19:45;98763.25;;;24.13;67.55
57000;BME280;42891;50.006;21.964;2022-07-01T03:23:46;98778.75;;;23.88;68.48
57000;BME280;42891;50.006;21.964;2022-07-01T03:27:46;98773.03;;;23.96;67.84
57000;BME280;42891;50.006;21.964;2022-07-01T03:31:47;98777.44;;;24.09;68.22
57000;BME280;42891;50.006;21.964;2022-07-01T03:35:48;98787.13;;;24.10;67.78
57000;BME280;42891;50.006;21.964;2022-07-01T03:39:49;98788.16;;;24.27;67.84
57000;BME280;42891;50.006;21.964;2022-07-01T03:43:49;98777.97;;;24.29;68.39
57000;BME280;42891;50.006;21.964;2022-07-01T03:47:51;98782.41;;;24.36;69.28
57000;BME280;42891;50.006;21.964;2022-07-01T03:51:51;98785.34;;;24.46;68.98
57000;BME280;42891;50.006;21.964;2022-07-01T03:55:51;98778.69;;;24.48;69.75
57000;BME280;42891;50.006;21.964;2022-07-01T03:59:52;98771.66;;;24.47;69.45
57000;BME280;42891;50.006;21.964;2022-07-01T04:03:52;98773.66;;;24.52;69.46
57000;BME280;42891;50.006;21.964;2022-07-01T04:07:53;98792.81;;;24.62;69.56
57000;BME280;42891;50.006;21.964;2022-07-01T04:11:53;98783.28;;;24.60;68.99
57000;BME280;42891;50.006;21.964;2022-07-01T04:15:54;98783.91;;;24.62;67.23
57000;BME280;42891;50.006;21.964;2022-07-01T04:19:54;98788.03;;;24.64;67.87
57000;BME280;42891;50.006;21.964;2022-07-01T04:23:55;98788.16;;;24.70;67.63
57000;BME280;42891;50.006;21.964;2022-07-01T04:27:56;98788.72;;;24.72;69.08
57000;BME280;42891;50.006;21.964;2022-07-01T04:31:57;98776.97;;;24.66;70.24
57000;BME280;42891;50.006;21.964;2022-07-01T04:35:58;98779.09;;;24.76;68.83
57000;BME280;42891;50.006;21.964;2022-07-01T04:39:58;98776.53;;;24.81;70.05
57000;BME280;42891;50.006;21.964;2022-07-01T04:43:59;98779.00;;;24.82;69.96
57000;BME280;42891;50.006;21.964;2022-07-01T04:47:59;98780.06;;;24.93;69.76
57000;BME280;42891;50.006;21.964;2022-07-01T04:51:59;98769.69;;;24.90;68.73
57000;BME280;42891;50.006;21.964;2022-07-01T04:56:00;98780.16;;;24.98;68.67
57000;BME280;42891;50.006;21.964;2022-07-01T05:00:00;98788.97;;;25.06;69.28
57000;BME280;42891;50.006;21.964;2022-07-01T05:04:01;98788.38;;;25.15;69.22
57000;BME280;42891;50.006;21.964;2022-07-01T05:08:01;98790.13;;;25.10;68.24
57000;BME280;42891;50.006;21.964;2022-07-01T05:12:02;98786.97;;;25.13;69.06
57000;BME280;42891;50.006;21.964;2022-07-01T05:16:03;98790.00;;;25.28;68.88
57000;BME280;42891;50.006;21.964;2022-07-01T05:20:04;98782.84;;;25.34;68.62
57000;BME280;42891;50.006;21.964;2022-07-01T05:24:26;98783.91;;;25.33;69.24
57000;BME280;42891;50.006;21.964;2022-07-01T05:28:28;98798.22;;;25.45;69.13
57000;BME280;42891;50.006;21.964;2022-07-01T05:32:28;98796.69;;;25.49;69.02
57000;BME280;42891;50.006;21.964;2022-07-01T05:36:29;98781.41;;;25.55;68.25
57000;BME280;42891;50.006;21.964;2022-07-01T05:40:29;98797.34;;;25.68;68.42
57000;BME280;42891;50.006;21.964;2022-07-01T05:44:29;98800.88;;;25.69;68.69
57000;BME280;42891;50.006;21.964;2022-07-01T05:48:30;98782.44;;;25.66;67.21
57000;BME280;42891;50.006;21.964;2022-07-01T05:52:30;98789.91;;;25.76;67.30
57000;BME280;42891;50.006;21.964;2022-07-01T05:56:30;98801.63;;;25.93;67.14
57000;BME280;42891;50.006;21.964;2022-07-01T06:00:32;98799.13;;;26.03;66.17
57000;BME280;42891;50.006;21.964;2022-07-01T06:04:32;98793.34;;;26.12;67.52
57000;BME280;42891;50.006;21.964;2022-07-01T06:08:34;98792.94;;;26.20;66.52
57000;BME280;42891;50.006;21.964;2022-07-01T06:12:34;98795.25;;;26.28;65.81
57000;BME280;42891;50.006;21.964;2022-07-01T06:16:34;98799.13;;;26.32;63.66
57000;BME280;42891;50.006;21.964;2022-07-01T06:20:35;98804.63;;;26.37;64.82
57000;BME280;42891;50.006;21.964;2022-07-01T06:24:35;98799.38;;;26.48;63.63
57000;BME280;42891;50.006;21.964;2022-07-01T06:28:35;98804.69;;;26.60;62.75
57000;BME280;42891;50.006;21.964;2022-07-01T06:32:37;98801.41;;;26.69;62.75
57000;BME280;42891;50.006;21.964;2022-07-01T06:36:37;98801.69;;;26.73;62.12
57000;BME280;42891;50.006;21.964;2022-07-01T06:40:38;98795.47;;;26.90;61.86
57000;BME280;42891;50.006;21.964;2022-07-01T06:44:38;98798.00;;;26.96;62.53
57000;BME280;42891;50.006;21.964;2022-07-01T06:48:38;98798.13;;;27.07;61.84
57000;BME280;42891;50.006;21.964;2022-07-01T06:52:39;98799.19;;;27.22;62.33
57000;BME280;42891;50.006;21.964;2022-07-01T06:56:39;98796.84;;;27.31;63.77
57000;BME280;42891;50.006;21.964;2022-07-01T07:00:39;98781.34;;;27.27;61.81
57000;BME280;42891;50.006;21.964;2022-07-01T07:04:40;98797.44;;;27.55;60.78
57000;BME280;42891;50.006;21.964;2022-07-01T07:08:40;98788.06;;;27.63;61.51
57000;BME280;42891;50.006;21.964;2022-07-01T07:12:40;98772.53;;;27.81;60.82
57000;BME280;42891;50.006;21.964;2022-07-01T07:16:41;98782.44;;;27.92;60.33
57000;BME280;42891;50.006;21.964;2022-07-01T07:20:41;98751.47;;;27.88;57.68
57000;BME280;42891;50.006;21.964;2022-07-01T07:24:41;98772.69;;;28.18;57.75
57000;BME280;42891;50.006;21.964;2022-07-01T07:28:42;98768.16;;;28.29;57.28
57000;BME280;42891;50.006;21.964;2022-07-01T07:32:42;98767.94;;;28.36;56.43
57000;BME280;42891;50.006;21.964;2022-07-01T07:36:43;98762.41;;;28.58;56.58
57000;BME280;42891;50.006;21.964;2022-07-01T07:40:43;98761.91;;;28.61;54.69
57000;BME280;42891;50.006;21.964;2022-07-01T07:44:43;98764.16;;;28.69;54.50
57000;BME280;42891;50.006;21.964;2022-07-01T07:48:44;98760.19;;;28.87;54.31
57000;BME280;42891;50.006;21.964;2022-07-01T07:52:44;98768.97;;;28.95;51.71
57000;BME280;42891;50.006;21.964;2022-07-01T07:56:44;98757.88;;;29.01;52.21
57000;BME280;42891;50.006;21.964;2022-07-01T08:00:45;98767.44;;;29.14;51.55
57000;BME280;42891;50.006;21.964;2022-07-01T08:04:45;98770.47;;;29.23;51.20
57000;BME280;42891;50.006;21.964;2022-07-01T08:08:45;98763.78;;;29.41;51.61
57000;BME280;42891;50.006;21.964;2022-07-01T08:12:46;98774.72;;;29.56;51.73
57000;BME280;42891;50.006;21.964;2022-07-01T08:16:46;98767.38;;;29.62;52.63
57000;BME280;42891;50.006;21.964;2022-07-01T08:20:47;98761.44;;;29.75;51.60
57000;BME280;42891;50.006;21.964;2022-07-01T08:24:47;98778.34;;;29.83;50.73
57000;BME280;42891;50.006;21.964;2022-07-01T08:28:48;98772.41;;;29.96;52.54
57000;BME280;42891;50.006;21.964;2022-07-01T08:32:48;98781.13;;;30.03;52.38
57000;BME280;42891;50.006;21.964;2022-07-01T08:36:49;98767.28;;;30.15;51.16
57000;BME280;42891;50.006;21.964;2022-07-01T08:40:49;98768.34;;;30.04;49.78
57000;BME280;42891;50.006;21.964;2022-07-01T08:44:50;98770.81;;;30.16;51.43
57000;BME280;42891;50.006;21.964;2022-07-01T08:48:50;98769.19;;;30.25;50.47
57000;BME280;42891;50.006;21.964;2022-07-01T08:52:51;98754.19;;;30.12;49.23
57000;BME280;42891;50.006;21.964;2022-07-01T08:56:51;98762.94;;;30.30;49.30
57000;BME280;42891;50.006;21.964;2022-07-01T09:00:52;98761.88;;;30.46;48.60
57000;BME280;42891;50.006;21.964;2022-07-01T09:05:05;98770.81;;;30.41;48.45
57000;BME280;42891;50.006;21.964;2022-07-01T09:09:19;98749.06;;;30.57;48.49
57000;BME280;42891;50.006;21.964;2022-07-01T09:13:20;98750.97;;;30.56;47.97
57000;BME280;42891;50.006;21.964;2022-07-01T09:17:20;98747.69;;;30.70;48.18
57000;BME280;42891;50.006;21.964;2022-07-01T09:21:21;98757.44;;;30.97;46.12
57000;BME280;42891;50.006;21.964;2022-07-01T09:25:26;98768.06;;;31.19;46.39
57000;BME280;42891;50.006;21.964;2022-07-01T09:29:33;98755.00;;;31.05;45.89
57000;BME280;42891;50.006;21.964;2022-07-01T09:33:34;98762.06;;;31.11;42.89
57000;BME280;42891;50.006;21.964;2022-07-01T09:37:35;98757.38;;;31.33;44.05
57000;BME280;42891;50.006;21.964;2022-07-01T09:41:38;98736.41;;;31.23;42.52
57000;BME280;42891;50.006;21.964;2022-07-01T09:45:48;98761.94;;;31.53;42.92
57000;BME280;42891;50.006;21.964;2022-07-01T09:49:49;98741.28;;;31.36;41.87
57000;BME280;42891;50.006;21.964;2022-07-01T09:53:50;98748.31;;;31.48;42.12
57000;BME280;42891;50.006;21.964;2022-07-01T09:57:50;98747.44;;;31.57;42.68
57000;BME280;42891;50.006;21.964;2022-07-01T10:01:51;98738.44;;;31.62;43.57
57000;BME280;42891;50.006;21.964;2022-07-01T10:06:02;98731.19;;;31.87;43.18
57000;BME280;42891;50.006;21.964;2022-07-01T10:14:30;98740.38;;;32.01;41.30
57000;BME280;42891;50.006;21.964;2022-07-01T10:18:31;98731.13;;;31.97;41.72
57000;BME280;42891;50.006;21.964;2022-07-01T10:22:35;98724.81;;;32.02;41.41
57000;BME280;42891;50.006;21.964;2022-07-01T10:26:36;98716.91;;;32.00;42.25
57000;BME280;42891;50.006;21.964;2022-07-01T10:35:06;98703.97;;;32.45;42.36
57000;BME280;42891;50.006;21.964;2022-07-01T10:39:09;98712.81;;;32.37;41.96
57000;BME280;42891;50.006;21.964;2022-07-01T10:43:10;98707.88;;;32.39;42.57
57000;BME280;42891;50.006;21.964;2022-07-01T10:47:14;98706.25;;;32.38;40.93
57000;BME280;42891;50.006;21.964;2022-07-01T10:52:17;98698.25;;;32.47;42.74
57000;BME280;42891;50.006;21.964;2022-07-01T10:55:58;98689.16;;;32.57;43.77
57000;BME280;42891;50.006;21.964;2022-07-01T11:04:01;98688.22;;;32.67;42.21
57000;BME280;42891;50.006;21.964;2022-07-01T11:08:01;98688.47;;;32.65;41.34
57000;BME280;42891;50.006;21.964;2022-07-01T11:12:06;98691.78;;;32.91;40.89
57000;BME280;42891;50.006;21.964;2022-07-01T11:16:08;98688.53;;;32.89;40.86
57000;BME280;42891;50.006;21.964;2022-07-01T11:20:09;98679.69;;;32.97;40.07
57000;BME280;42891;50.006;21.964;2022-07-01T11:24:10;98674.47;;;33.25;39.85
57000;BME280;42891;50.006;21.964;2022-07-01T11:28:11;98673.56;;;33.30;39.97
57000;BME280;42891;50.006;21.964;2022-07-01T11:32:11;98674.25;;;33.41;40.12
57000;BME280;42891;50.006;21.964;2022-07-01T11:36:13;98667.56;;;33.47;40.38
57000;BME280;42891;50.006;21.964;2022-07-01T11:40:32;98646.44;;;33.53;39.74
57000;BME280;42891;50.006;21.964;2022-07-01T11:44:41;98666.34;;;33.39;39.75
57000;BME280;42891;50.006;21.964;2022-07-01T11:48:44;98664.41;;;33.40;39.88
57000;BME280;42891;50.006;21.964;2022-07-01T11:52:44;98647.19;;;33.58;39.41
57000;BME280;42891;50.006;21.964;2022-07-01T11:56:44;98644.81;;;33.52;38.93
57000;BME280;42891;50.006;21.964;2022-07-01T12:00:45;98649.09;;;33.58;39.01
57000;BME280;42891;50.006;21.964;2022-07-01T12:04:46;98649.91;;;33.58;39.39
57000;BME280;42891;50.006;21.964;2022-07-01T12:08:47;98641.31;;;33.84;39.17
57000;BME280;42891;50.006;21.964;2022-07-01T12:12:47;98650.63;;;34.02;37.21
57000;BME280;42891;50.006;21.964;2022-07-01T12:16:51;98631.41;;;33.88;37.96
57000;BME280;42891;50.006;21.964;2022-07-01T12:20:53;98639.97;;;34.01;38.15
57000;BME280;42891;50.006;21.964;2022-07-01T12:25:13;98637.53;;;33.99;38.19
57000;BME280;42891;50.006;21.964;2022-07-01T12:29:20;98633.00;;;34.08;38.92
57000;BME280;42891;50.006;21.964;2022-07-01T12:33:21;98630.59;;;34.21;38.45
57000;BME280;42891;50.006;21.964;2022-07-01T12:37:35;98641.44;;;34.26;37.93
57000;BME280;42891;50.006;21.964;2022-07-01T12:41:36;98628.19;;;34.47;37.64
57000;BME280;42891;50.006;21.964;2022-07-01T12:45:39;98628.50;;;34.59;37.77
57000;BME280;42891;50.006;21.964;2022-07-01T12:49:40;98634.13;;;34.68;37.41
57000;BME280;42891;50.006;21.964;2022-07-01T12:53:41;98618.16;;;34.56;37.44
57000;BME280;42891;50.006;21.964;2022-07-01T12:57:42;98616.34;;;34.79;36.77
57000;BME280;42891;50.006;21.964;2022-07-01T13:01:42;98611.28;;;34.87;36.99
57000;BME280;42891;50.006;21.964;2022-07-01T13:05:42;98619.09;;;34.93;37.42
57000;BME280;42891;50.006;21.964;2022-07-01T13:09:43;98615.00;;;35.05;37.13
57000;BME280;42891;50.006;21.964;2022-07-01T13:13:43;98608.63;;;34.81;37.00
57000;BME280;42891;50.006;21.964;2022-07-01T13:17:46;98603.34;;;34.85;36.89
57000;BME280;42891;50.006;21.964;2022-07-01T13:21:46;98614.13;;;34.81;37.87
57000;BME280;42891;50.006;21.964;2022-07-01T13:25:47;98599.19;;;34.74;37.08
57000;BME280;42891;50.006;21.964;2022-07-01T13:29:47;98596.94;;;34.48;37.18
57000;BME280;42891;50.006;21.964;2022-07-01T13:33:47;98598.59;;;34.16;37.75
57000;BME280;42891;50.006;21.964;2022-07-01T13:37:48;98599.50;;;33.97;37.98
57000;BME280;42891;50.006;21.964;2022-07-01T13:41:48;98592.41;;;33.77;38.87
57000;BME280;42891;50.006;21.964;2022-07-01T13:45:49;98602.31;;;33.73;39.14
57000;BME280;42891;50.006;21.964;2022-07-01T13:49:49;98592.69;;;33.43;38.53
57000;BME280;42891;50.006;21.964;2022-07-01T13:53:50;98609.69;;;33.40;38.70
57000;BME280;42891;50.006;21.964;2022-07-01T13:57:50;98595.25;;;33.53;38.85
57000;BME280;42891;50.006;21.964;2022-07-01T14:01:50;98588.38;;;33.56;38.90
57000;BME280;42891;50.006;21.964;2022-07-01T14:05:51;98606.75;;;33.69;39.12
57000;BME280;42891;50.006;21.964;2022-07-01T14:09:51;98614.09;;;33.93;39.00
57000;BME280;42891;50.006;21.964;2022-07-01T14:13:52;98610.56;;;34.06;39.52
57000;BME280;42891;50.006;21.964;2022-07-01T14:17:52;98600.53;;;34.15;38.61
57000;BME280;42891;50.006;21.964;2022-07-01T14:21:54;98598.34;;;34.31;39.24
57000;BME280;42891;50.006;21.964;2022-07-01T14:25:55;98602.53;;;34.29;37.52
57000;BME280;42891;50.006;21.964;2022-07-01T14:29:55;98607.09;;;34.47;38.80
57000;BME280;42891;50.006;21.964;2022-07-01T14:33:55;98596.94;;;34.48;37.23
57000;BME280;42891;50.006;21.964;2022-07-01T14:37:56;98601.94;;;34.46;37.70
57000;BME280;42891;50.006;21.964;2022-07-01T14:41:57;98603.94;;;34.40;37.61
57000;BME280;42891;50.006;21.964;2022-07-01T14:45:57;98600.69;;;34.38;38.39
57000;BME280;42891;50.006;21.964;2022-07-01T14:49:58;98603.19;;;34.21;37.79
57000;BME280;42891;50.006;21.964;2022-07-01T14:53:58;98583.38;;;34.10;37.90
57000;BME280;42891;50.006;21.964;2022-07-01T14:57:59;98591.69;;;34.05;38.50
57000;BME280;42891;50.006;21.964;2022-07-01T15:02:01;98605.31;;;34.10;38.04
57000;BME280;42891;50.006;21.964;2022-07-01T15:06:03;98596.69;;;34.17;38.03
57000;BME280;42891;50.006;21.964;2022-07-01T15:10:04;98602.16;;;34.17;38.17
57000;BME280;42891;50.006;21.964;2022-07-01T15:14:04;98600.31;;;34.12;38.64
57000;BME280;42891;50.006;21.964;2022-07-01T15:18:05;98596.69;;;34.17;38.71
57000;BME280;42891;50.006;21.964;2022-07-01T15:22:06;98595.16;;;34.24;38.63
57000;BME280;42891;50.006;21.964;2022-07-01T15:26:08;98599.47;;;34.30;39.40
57000;BME280;42891;50.006;21.964;2022-07-01T15:30:08;98581.31;;;34.35;39.64
57000;BME280;42891;50.006;21.964;2022-07-01T15:34:09;98589.06;;;34.27;39.35
57000;BME280;42891;50.006;21.964;2022-07-01T15:38:11;98584.06;;;34.48;38.79
57000;BME280;42891;50.006;21.964;2022-07-01T15:42:11;98579.78;;;34.42;38.48
57000;BME280;42891;50.006;21.964;2022-07-01T15:46:15;98576.41;;;34.73;38.17
57000;BME280;42891;50.006;21.964;2022-07-01T15:50:15;98584.63;;;35.01;37.78
57000;BME280;42891;50.006;21.964;2022-07-01T15:54:18;98582.25;;;35.36;36.67
57000;BME280;42891;50.006;21.964;2022-07-01T15:58:19;98593.53;;;35.57;36.00
57000;BME280;42891;50.006;21.964;2022-07-01T16:02:19;98590.28;;;35.78;35.82
57000;BME280;42891;50.006;21.964;2022-07-01T16:06:20;98590.28;;;36.00;35.20
57000;BME280;42891;50.006;21.964;2022-07-01T16:10:35;98594.28;;;36.26;35.66
57000;BME280;42891;50.006;21.964;2022-07-01T16:14:38;98586.91;;;36.75;35.32
57000;BME280;42891;50.006;21.964;2022-07-01T16:18:41;98598.69;;;36.76;34.87
57000;BME280;42891;50.006;21.964;2022-07-01T16:22:47;98605.09;;;36.94;35.68
57000;BME280;42891;50.006;21.964;2022-07-01T16:26:48;98587.47;;;36.23;35.13
57000;BME280;42891;50.006;21.964;2022-07-01T16:30:48;98597.97;;;35.90;36.02
57000;BME280;42891;50.006;21.964;2022-07-01T16:34:50;98593.28;;;35.45;37.01
57000;BME280;42891;50.006;21.964;2022-07-01T16:43:01;98595.81;;;34.77;35.99
57000;BME280;42891;50.006;21.964;2022-07-01T16:47:03;98602.03;;;34.55;36.06
57000;BME280;42891;50.006;21.964;2022-07-01T16:51:05;98600.94;;;34.23;36.72
57000;BME280;42891;50.006;21.964;2022-07-01T16:55:11;98589.59;;;33.83;37.52
57000;BME280;42891;50.006;21.964;2022-07-01T16:59:12;98603.41;;;33.91;37.94
57000;BME280;42891;50.006;21.964;2022-07-01T17:03:14;98614.53;;;33.81;38.14
57000;BME280;42891;50.006;21.964;2022-07-01T17:07:14;98600.34;;;33.60;39.08
57000;BME280;42891;50.006;21.964;2022-07-01T17:11:15;98580.44;;;33.16;39.50
57000;BME280;42891;50.006;21.964;2022-07-01T17:15:19;98604.28;;;33.35;39.87
57000;BME280;42891;50.006;21.964;2022-07-01T17:19:19;98596.56;;;33.18;39.54
57000;BME280;42891;50.006;21.964;2022-07-01T17:23:42;98575.63;;;33.08;40.36
57000;BME280;42891;50.006;21.964;2022-07-01T17:32:05;98572.72;;;32.80;41.17
57000;BME280;42891;50.006;21.964;2022-07-01T17:36:07;98588.19;;;32.90;41.62
57000;BME280;42891;50.006;21.964;2022-07-01T17:40:11;98568.00;;;32.61;41.67
57000;BME280;42891;50.006;21.964;2022-07-01T17:44:13;98580.38;;;32.54;42.00
57000;BME280;42891;50.006;21.964;2022-07-01T17:48:14;98575.94;;;32.39;41.73
57000;BME280;42891;50.006;21.964;2022-07-01T17:52:17;98581.19;;;32.30;42.72
57000;BME280;42891;50.006;21.964;2022-07-01T17:56:17;98587.53;;;32.25;43.02
57000;BME280;42891;50.006;21.964;2022-07-01T18:00:18;98596.16;;;32.08;42.93
57000;BME280;42891;50.006;21.964;2022-07-01T18:04:19;98589.41;;;31.95;43.09
57000;BME280;42891;50.006;21.964;2022-07-01T18:08:22;98583.69;;;31.97;42.69
57000;BME280;42891;50.006;21.964;2022-07-01T18:12:34;98585.84;;;31.71;44.73
57000;BME280;42891;50.006;21.964;2022-07-01T18:16:51;98590.56;;;31.55;44.42
57000;BME280;42891;50.006;21.964;2022-07-01T18:20:55;98587.09;;;31.44;45.10
57000;BME280;42891;50.006;21.964;2022-07-01T18:24:56;98594.72;;;31.47;44.68
57000;BME280;42891;50.006;21.964;2022-07-01T18:28:57;98602.78;;;31.23;45.09
57000;BME280;42891;50.006;21.964;2022-07-01T18:33:05;98608.78;;;31.20;45.03
57000;BME280;42891;50.006;21.964;2022-07-01T18:37:09;98604.97;;;31.21;45.50
57000;BME280;42891;50.006;21.964;2022-07-01T18:41:10;98613.75;;;31.13;45.71
57000;BME280;42891;50.006;21.964;2022-07-01T18:45:11;98611.88;;;30.98;45.30
57000;BME280;42891;50.006;21.964;2022-07-01T18:49:12;98618.75;;;30.85;45.50
57000;BME280;42891;50.006;21.964;2022-07-01T18:53:14;98620.41;;;30.81;46.35
57000;BME280;42891;50.006;21.964;2022-07-01T18:57:14;98612.28;;;30.65;46.45
57000;BME280;42891;50.006;21.964;2022-07-01T19:01:15;98609.81;;;30.64;46.51
57000;BME280;42891;50.006;21.964;2022-07-01T19:05:15;98606.06;;;30.49;46.42
57000;BME280;42891;50.006;21.964;2022-07-01T19:09:15;98621.03;;;30.57;47.22
57000;BME280;42891;50.006;21.964;2022-07-01T19:13:16;98617.25;;;30.32;46.98
57000;BME280;42891;50.006;21.964;2022-07-01T19:17:18;98623.72;;;30.41;46.78
57000;BME280;42891;50.006;21.964;2022-07-01T19:21:18;98630.31;;;30.15;48.02
57000;BME280;42891;50.006;21.964;2022-07-01T19:25:18;98630.03;;;30.16;47.64
57000;BME280;42891;50.006;21.964;2022-07-01T19:29:19;98631.69;;;30.12;47.16
57000;BME280;42891;50.006;21.964;2022-07-01T19:33:19;98642.31;;;30.08;46.66
57000;BME280;42891;50.006;21.964;2022-07-01T19:37:19;98637.69;;;29.99;47.39
57000;BME280;42891;50.006;21.964;2022-07-01T19:41:20;98636.59;;;29.95;47.65
57000;BME280;42891;50.006;21.964;2022-07-01T19:45:20;98609.06;;;29.75;47.98
57000;BME280;42891;50.006;21.964;2022-07-01T19:49:20;98642.59;;;29.86;47.92
57000;BME280;42891;50.006;21.964;2022-07-01T19:53:21;98622.13;;;29.68;46.93
57000;BME280;42891;50.006;21.964;2022-07-01T19:57:21;98642.00;;;29.74;47.28
57000;BME280;42891;50.006;21.964;2022-07-01T20:01:22;98639.81;;;29.66;47.35
57000;BME280;42891;50.006;21.964;2022-07-01T20:05:23;98644.16;;;29.62;47.69
57000;BME280;42891;50.006;21.964;2022-07-01T20:09:24;98647.41;;;29.64;47.74
57000;BME280;42891;50.006;21.964;2022-07-01T20:13:25;98654.75;;;29.58;47.92
57000;BME280;42891;50.006;21.964;2022-07-01T20:17:25;98653.16;;;29.57;47.77
57000;BME280;42891;50.006;21.964;2022-07-01T20:21:26;98644.41;;;29.45;48.51
57000;BME280;42891;50.006;21.964;2022-07-01T20:25:26;98637.56;;;29.27;46.89
57000;BME280;42891;50.006;21.964;2022-07-01T20:29:26;98648.94;;;29.23;48.43
57000;BME280;42891;50.006;21.964;2022-07-01T20:33:27;98646.47;;;29.17;48.67
57000;BME280;42891;50.006;21.964;2022-07-01T20:37:28;98664.69;;;29.11;48.97
57000;BME280;42891;50.006;21.964;2022-07-01T20:41:28;98665.47;;;29.01;49.71
57000;BME280;42891;50.006;21.964;2022-07-01T20:45:28;98662.09;;;28.84;49.95
57000;BME280;42891;50.006;21.964;2022-07-01T20:49:29;98660.72;;;28.81;50.54
57000;BME280;42891;50.006;21.964;2022-07-01T20:53:29;98656.66;;;28.84;49.63
57000;BME280;42891;50.006;21.964;2022-07-01T20:57:30;98667.81;;;28.87;50.44
57000;BME280;42891;50.006;21.964;2022-07-01T21:01:30;98658.84;;;28.87;50.46
57000;BME280;42891;50.006;21.964;2022-07-01T21:05:31;98658.81;;;28.77;50.76
57000;BME280;42891;50.006;21.964;2022-07-01T21:09:31;98652.50;;;28.66;51.04
57000;BME280;42891;50.006;21.964;2022-07-01T21:13:32;98660.41;;;28.72;50.99
57000;BME280;42891;50.006;21.964;2022-07-01T21:17:33;98652.50;;;28.66;51.03
57000;BME280;42891;50.006;21.964;2022-07-01T21:21:33;98647.34;;;28.64;51.54
57000;BME280;42891;50.006;21.964;2022-07-01T21:25:34;98637.84;;;28.67;50.96